sensor_id;sensor_type;location;lat;lon;timestamp;pressure;altitude;pressure_sealevel;temperature;humidity
80976;BME280;70437;49.466;11.002;2023-11-21T00:00:29;97597.97;;;8.65;100.00
80976;BME280;70437;49.466;11.002;2023-11-21T00:03:01;97603.91;;;8.67;100.00
80976;BME280;70437;49.466;11.002;2023-11-21T00:05:32;97601.25;;;8.67;100.00
80976;BME280;70437;49.466;11.002;2023-11-21T00:08:03;97596.56;;;8.63;100.00
80976;BME280;70437;49.466;11.002;2023-11-21T00:10:32;97593.53;;;8.59;100.00
80976;BME280;70437;49.466;11.002;2023-11-21T00:13:01;97590.03;;;8.58;100.00
80976;BME280;70437;49.466;11.002;2023-11-21T00:15:32;97582.84;;;8.59;100.00
80976;BME280;70437;49.466;11.002;2023-11-21T00:18:01;97595.91;;;8.67;100.00
80976;BME280;70437;49.466;11.002;2023-11-21T00:20:30;97598.34;;;8.69;100.00
80976;BME280;70437;49.466;11.002;2023-11-21T00:23:00;97594.75;;;8.75;100.00
80976;BME280;70437;49.466;11.002;2023-11-21T00:25:29;97593.38;;;8.72;100.00
80976;BME280;70437;49.466;11.002;2023-11-21T00:28:00;97594.19;;;8.73;100.00
80976;BME280;70437;49.466;11.002;2023-11-21T00:30:33;97591.94;;;8.70;100.00
80976;BME280;70437;49.466;11.002;2023-11-21T00:33:02;97586.16;;;8.73;100.00
80976;BME280;70437;49.466;11.002;2023-11-21T00:35:33;97586.84;;;8.68;100.00
80976;BME280;70437;49.466;11.002;2023-11-21T00:38:03;97585.22;;;8.67;100.00
80976;BME280;70437;49.466;11.002;2023-11-21T00:40:33;97588.03;;;8.72;100.00
80976;BME280;70437;49.466;11.002;2023-11-21T00:43:02;97590.09;;;8.70;100.00
80976;BME280;70437;49.466;11.002;2023-11-21T00:45:35;97587.75;;;8.62;100.00
80976;BME280;70437;49.466;11.002;2023-11-21T00:48:04;97589.81;;;8.60;100.00
80976;BME280;70437;49.466;11.002;2023-11-21T00:50:34;97587.50;;;8.64;100.00
80976;BME280;70437;49.466;11.002;2023-11-21T00:53:04;97595.16;;;8.60;100.00
80976;BME280;70437;49.466;11.002;2023-11-21T00:55:35;97594.91;;;8.61;100.00
80976;BME280;70437;49.466;11.002;2023-11-21T00:58:04;97589.56;;;8.61;100.00
80976;BME280;70437;49.466;11.002;2023-11-21T01:00:35;97584.97;;;8.69;100.00
80976;BME280;70437;49.466;11.002;2023-11-21T01:03:07;97588.47;;;8.69;100.00
80976;BME280;70437;49.466;11.002;2023-11-21T01:05:37;97596.47;;;8.69;100.00
80976;BME280;70437;49.466;11.002;2023-11-21T01:08:06;97592.56;;;8.72;100.00
80976;BME280;70437;49.466;11.002;2023-11-21T01:10:35;97590.09;;;8.70;100.00
80976;BME280;70437;49.466;11.002;2023-11-21T01:13:04;97600.94;;;8.75;100.00
80976;BME280;70437;49.466;11.002;2023-11-21T01:15:41;97593.50;;;8.77;100.00
80976;BME280;70437;49.466;11.002;2023-11-21T01:18:10;97592.44;;;8.78;100.00
80976;BME280;70437;49.466;11.002;2023-11-21T01:20:45;97595.22;;;8.72;100.00
80976;BME280;70437;49.466;11.002;2023-11-21T01:23:15;97597.25;;;8.58;100.00
80976;BME280;70437;49.466;11.002;2023-11-21T01:25:44;97599.00;;;8.64;100.00
80976;BME280;70437;49.466;11.002;2023-11-21T01:28:13;97588.69;;;8.68;100.00
80976;BME280;70437;49.466;11.002;2023-11-21T01:30:43;97589.94;;;8.65;100.00
80976;BME280;70437;49.466;11.002;2023-11-21T01:33:13;97602.88;;;8.68;100.00
80976;BME280;70437;49.466;11.002;2023-11-21T01:35:44;97591.66;;;8.59;100.00
80976;BME280;70437;49.466;11.002;2023-11-21T01:38:14;97597.38;;;8.63;100.00
80976;BME280;70437;49.466;11.002;2023-11-21T01:40:45;97599.63;;;8.66;100.00
80976;BME280;70437;49.466;11.002;2023-11-21T01:43:14;97590.84;;;8.59;100.00
80976;BME280;70437;49.466;11.002;2023-11-21T01:45:46;97586.84;;;8.68;100.00
80976;BME280;70437;49.466;11.002;2023-11-21T01:48:17;97594.28;;;8.66;100.00
80976;BME280;70437;49.466;11.002;2023-11-21T01:50:51;97582.75;;;8.66;100.00
80976;BME280;70437;49.466;11.002;2023-11-21T01:53:20;97584.06;;;8.75;100.00
80976;BME280;70437;49.466;11.002;2023-11-21T01:55:50;97582.53;;;8.67;100.00
80976;BME280;70437;49.466;11.002;2023-11-21T01:58:23;97584.91;;;8.57;100.00
80976;BME280;70437;49.466;11.002;2023-11-21T02:00:55;97581.41;;;8.56;100.00
80976;BME280;70437;49.466;11.002;2023-11-21T02:03:24;97584.34;;;8.55;100.00
80976;BME280;70437;49.466;11.002;2023-11-21T02:05:54;97580.69;;;8.68;100.00
80976;BME280;70437;49.466;11.002;2023-11-21T02:08:25;97580.31;;;8.64;100.00
80976;BME280;70437;49.466;11.002;2023-11-21T02:11:01;97574.44;;;8.74;100.00
80976;BME280;70437;49.466;11.002;2023-11-21T02:13:31;97576.06;;;8.75;100.00
80976;BME280;70437;49.466;11.002;2023-11-21T02:16:06;97575.38;;;8.79;100.00
80976;BME280;70437;49.466;11.002;2023-11-21T02:18:36;97571.00;;;8.85;100.00
80976;BME280;70437;49.466;11.002;2023-11-21T02:21:06;97567.22;;;8.74;100.00
80976;BME280;70437;49.466;11.002;2023-11-21T02:23:36;97574.28;;;8.69;100.00
80976;BME280;70437;49.466;11.002;2023-11-21T02:26:10;97565.84;;;8.72;100.00
80976;BME280;70437;49.466;11.002;2023-11-21T02:28:39;97577.41;;;8.66;100.00
80976;BME280;70437;49.466;11.002;2023-11-21T02:31:10;97575.34;;;8.68;100.00
80976;BME280;70437;49.466;11.002;2023-11-21T02:33:38;97573.94;;;8.65;100.00
80976;BME280;70437;49.466;11.002;2023-11-21T02:36:08;97564.53;;;8.63;100.00
80976;BME280;70437;49.466;11.002;2023-11-21T02:38:39;97579.06;;;8.67;100.00
80976;BME280;70437;49.466;11.002;2023-11-21T02:41:08;97575.09;;;8.69;100.00
80976;BME280;70437;49.466;11.002;2023-11-21T02:43:37;97572.44;;;8.69;100.00
80976;BME280;70437;49.466;11.002;2023-11-21T02:46:06;97569.06;;;8.62;100.00
80976;BME280;70437;49.466;11.002;2023-11-21T02:48:39;97564.06;;;8.66;100.00
80976;BME280;70437;49.466;11.002;2023-11-21T02:51:10;97573.38;;;8.75;100.00
80976;BME280;70437;49.466;11.002;2023-11-21T02:53:41;97565.16;;;8.76;100.00
80976;BME280;70437;49.466;11.002;2023-11-21T02:56:11;97557.16;;;8.76;100.00
80976;BME280;70437;49.466;11.002;2023-11-21T02:58:43;97564.91;;;8.66;100.00
80976;BME280;70437;49.466;11.002;2023-11-21T03:01:13;97560.94;;;8.69;100.00
80976;BME280;70437;49.466;11.002;2023-11-21T03:03:43;97558.66;;;8.72;100.00
80976;BME280;70437;49.466;11.002;2023-11-21T03:06:14;97560.94;;;8.69;100.00
80976;BME280;70437;49.466;11.002;2023-11-21T03:08:44;97557.97;;;8.77;100.00
80976;BME280;70437;49.466;11.002;2023-11-21T03:11:15;97562.94;;;8.73;100.00
80976;BME280;70437;49.466;11.002;2023-11-21T03:13:45;97564.13;;;8.77;100.00
80976;BME280;70437;49.466;11.002;2023-11-21T03:16:18;97561.59;;;8.82;100.00
80976;BME280;70437;49.466;11.002;2023-11-21T03:18:48;97563.06;;;8.78;100.00
80976;BME280;70437;49.466;11.002;2023-11-21T03:21:22;97568.78;;;8.82;100.00
80976;BME280;70437;49.466;11.002;2023-11-21T03:23:55;97564.94;;;8.78;100.00
80976;BME280;70437;49.466;11.002;2023-11-21T03:26:24;97559.56;;;8.66;100.00
80976;BME280;70437;49.466;11.002;2023-11-21T03:28:54;97575.19;;;8.81;100.00
80976;BME280;70437;49.466;11.002;2023-11-21T03:31:24;97568.41;;;8.78;100.00
80976;BME280;70437;49.466;11.002;2023-11-21T03:33:55;97562.88;;;8.80;100.00
80976;BME280;70437;49.466;11.002;2023-11-21T03:36:27;97574.94;;;8.82;100.00
80976;BME280;70437;49.466;11.002;2023-11-21T03:38:58;97563.88;;;8.79;100.00
80976;BME280;70437;49.466;11.002;2023-11-21T03:41:28;97561.56;;;8.71;100.00
80976;BME280;70437;49.466;11.002;2023-11-21T03:43:59;97569.59;;;8.82;100.00
80976;BME280;70437;49.466;11.002;2023-11-21T03:46:28;97570.88;;;8.80;100.00
80976;BME280;70437;49.466;11.002;2023-11-21T03:48:58;97569.59;;;8.82;100.00
80976;BME280;70437;49.466;11.002;2023-11-21T03:51:27;97577.34;;;8.72;100.00
80976;BME280;70437;49.466;11.002;2023-11-21T03:54:00;97575.72;;;8.71;100.00
80976;BME280;70437;49.466;11.002;2023-11-21T03:56:30;97573.19;;;8.76;100.00
80976;BME280;70437;49.466;11.002;2023-11-21T03:59:00;97574.91;;;8.71;100.00
80976;BME280;70437;49.466;11.002;2023-11-21T04:01:29;97571.88;;;8.67;100.00
80976;BME280;70437;49.466;11.002;2023-11-21T04:03:58;97575.91;;;8.70;100.00
80976;BME280;70437;49.466;11.002;2023-11-21T04:06:27;97584.31;;;8.73;100.00
80976;BME280;70437;49.466;11.002;2023-11-21T04:08:56;97588.03;;;8.72;100.00
80976;BME280;70437;49.466;11.002;2023-11-21T04:11:27;97587.78;;;8.74;100.00
80976;BME280;70437;49.466;11.002;2023-11-21T04:13:57;97581.78;;;8.78;100.00
80976;BME280;70437;49.466;11.002;2023-11-21T04:16:26;97584.31;;;8.73;100.00
80976;BME280;70437;49.466;11.002;2023-11-21T04:18:56;97580.81;;;8.73;100.00
80976;BME280;70437;49.466;11.002;2023-11-21T04:21:25;97575.25;;;8.74;100.00
80976;BME280;70437;49.466;11.002;2023-11-21T04:23:54;97577.50;;;8.59;100.00
80976;BME280;70437;49.466;11.002;2023-11-21T04:26:23;97584.63;;;8.47;100.00
80976;BME280;70437;49.466;11.002;2023-11-21T04:28:53;97568.47;;;8.42;100.00
80976;BME280;70437;49.466;11.002;2023-11-21T04:31:22;97572.22;;;8.34;100.00
80976;BME280;70437;49.466;11.002;2023-11-21T04:33:51;97576.63;;;8.47;100.00
80976;BME280;70437;49.466;11.002;2023-11-21T04:36:22;97573.38;;;8.45;100.00
80976;BME280;70437;49.466;11.002;2023-11-21T04:38:53;97583.59;;;8.48;100.00
80976;BME280;70437;49.466;11.002;2023-11-21T04:41:22;97582.47;;;8.37;100.00
80976;BME280;70437;49.466;11.002;2023-11-21T04:43:52;97592.06;;;8.45;100.00
80976;BME280;70437;49.466;11.002;2023-11-21T04:46:21;97587.81;;;8.55;100.00
80976;BME280;70437;49.466;11.002;2023-11-21T04:48:50;97585.50;;;8.59;100.00
80976;BME280;70437;49.466;11.002;2023-11-21T04:51:20;97592.84;;;8.64;100.00
80976;BME280;70437;49.466;11.002;2023-11-21T04:53:49;97595.91;;;8.67;100.00
80976;BME280;70437;49.466;11.002;2023-11-21T04:56:19;97604.72;;;8.68;100.00
80976;BME280;70437;49.466;11.002;2023-11-21T04:58:48;97599.16;;;8.69;100.00
80976;BME280;70437;49.466;11.002;2023-11-21T05:01:18;97598.09;;;8.70;100.00
80976;BME280;70437;49.466;11.002;2023-11-21T05:03:50;97596.94;;;8.66;100.00
80976;BME280;70437;49.466;11.002;2023-11-21T05:06:20;97601.00;;;8.69;100.00
80976;BME280;70437;49.466;11.002;2023-11-21T05:08:49;97604.97;;;8.66;100.00
80976;BME280;70437;49.466;11.002;2023-11-21T05:11:25;97590.94;;;8.71;100.00
80976;BME280;70437;49.466;11.002;2023-11-21T05:13:56;97605.28;;;8.70;100.00
80976;BME280;70437;49.466;11.002;2023-11-21T05:16:28;97598.47;;;8.74;100.00
80976;BME280;70437;49.466;11.002;2023-11-21T05:18:57;97598.34;;;8.69;100.00
80976;BME280;70437;49.466;11.002;2023-11-21T05:21:30;97600.19;;;8.68;100.00
80976;BME280;70437;49.466;11.002;2023-11-21T05:23:59;97602.88;;;8.68;100.00
80976;BME280;70437;49.466;11.002;2023-11-21T05:26:29;97609.16;;;8.74;100.00
80976;BME280;70437;49.466;11.002;2023-11-21T05:28:59;97608.94;;;8.75;100.00
80976;BME280;70437;49.466;11.002;2023-11-21T05:31:29;97608.34;;;8.73;100.00
80976;BME280;70437;49.466;11.002;2023-11-21T05:33:59;97617.53;;;8.77;100.00
80976;BME280;70437;49.466;11.002;2023-11-21T05:36:29;97621.63;;;8.61;100.00
80976;BME280;70437;49.466;11.002;2023-11-21T05:38:58;97626.97;;;8.43;100.00
80976;BME280;70437;49.466;11.002;2023-11-21T05:41:26;97636.53;;;8.51;100.00
80976;BME280;70437;49.466;11.002;2023-11-21T05:43:57;97624.97;;;8.57;100.00
80976;BME280;70437;49.466;11.002;2023-11-21T05:46:26;97629.06;;;8.59;100.00
80976;BME280;70437;49.466;11.002;2023-11-21T05:48:56;97630.75;;;8.54;100.00
80976;BME280;70437;49.466;11.002;2023-11-21T05:51:26;97644.94;;;8.54;100.00
80976;BME280;70437;49.466;11.002;2023-11-21T05:53:55;97632.38;;;8.55;100.00
80976;BME280;70437;49.466;11.002;2023-11-21T05:56:24;97634.97;;;8.61;100.00
80976;BME280;70437;49.466;11.002;2023-11-21T05:58:54;97638.00;;;8.65;100.00
80976;BME280;70437;49.466;11.002;2023-11-21T06:01:23;97633.44;;;8.54;100.00
80976;BME280;70437;49.466;11.002;2023-11-21T06:03:56;97639.81;;;8.53;100.00
80976;BME280;70437;49.466;11.002;2023-11-21T06:06:27;97639.72;;;8.59;100.00
80976;BME280;70437;49.466;11.002;2023-11-21T06:08:56;97649.16;;;8.62;100.00
80976;BME280;70437;49.466;11.002;2023-11-21T06:11:26;97651.16;;;8.67;100.00
80976;BME280;70437;49.466;11.002;2023-11-21T06:13:55;97650.13;;;8.68;100.00
80976;BME280;70437;49.466;11.002;2023-11-21T06:16:25;97646.63;;;8.67;100.00
80976;BME280;70437;49.466;11.002;2023-11-21T06:18:57;97645.06;;;8.59;100.00
80976;BME280;70437;49.466;11.002;2023-11-21T06:21:32;97654.66;;;8.67;100.00
80976;BME280;70437;49.466;11.002;2023-11-21T06:24:05;97655.69;;;8.66;100.00
80976;BME280;70437;49.466;11.002;2023-11-21T06:26:34;97660.28;;;8.59;100.00
80976;BME280;70437;49.466;11.002;2023-11-21T06:29:04;97652.78;;;8.68;100.00
80976;BME280;70437;49.466;11.002;2023-11-21T06:31:36;97656.72;;;8.65;100.00
80976;BME280;70437;49.466;11.002;2023-11-21T06:34:13;97655.75;;;8.78;100.00
80976;BME280;70437;49.466;11.002;2023-11-21T06:36:44;97659.47;;;8.77;100.00
80976;BME280;70437;49.466;11.002;2023-11-21T06:39:16;97660.56;;;8.88;100.00
80976;BME280;70437;49.466;11.002;2023-11-21T06:41:45;97661.03;;;8.84;100.00
80976;BME280;70437;49.466;11.002;2023-11-21T06:44:16;97667.88;;;9.10;100.00
80976;BME280;70437;49.466;11.002;2023-11-21T06:46:49;97664.56;;;8.78;100.00
80976;BME280;70437;49.466;11.002;2023-11-21T06:49:24;97672.13;;;9.00;100.00
80976;BME280;70437;49.466;11.002;2023-11-21T06:51:55;97683.44;;;9.02;100.00
80976;BME280;70437;49.466;11.002;2023-11-21T06:54:27;97677.41;;;8.88;100.00
80976;BME280;70437;49.466;11.002;2023-11-21T06:57:02;97690.75;;;8.88;100.00
80976;BME280;70437;49.466;11.002;2023-11-21T06:59:33;97695.16;;;8.82;100.00
80976;BME280;70437;49.466;11.002;2023-11-21T07:02:03;97699.44;;;8.83;100.00
80976;BME280;70437;49.466;11.002;2023-11-21T07:04:36;97696.94;;;8.89;100.00
80976;BME280;70437;49.466;11.002;2023-11-21T07:07:08;97706.88;;;9.00;100.00
80976;BME280;70437;49.466;11.002;2023-11-21T07:09:39;97712.72;;;9.08;100.00
80976;BME280;70437;49.466;11.002;2023-11-21T07:12:09;97698.28;;;9.28;100.00
80976;BME280;70437;49.466;11.002;2023-11-21T07:14:38;97719.59;;;9.34;100.00
80976;BME280;70437;49.466;11.002;2023-11-21T07:17:11;97719.41;;;9.18;100.00
80976;BME280;70437;49.466;11.002;2023-11-21T07:19:44;97721.03;;;9.19;100.00
80976;BME280;70437;49.466;11.002;2023-11-21T07:22:13;97728.09;;;9.13;100.00
80976;BME280;70437;49.466;11.002;2023-11-21T07:24:43;97726.00;;;9.15;100.00
80976;BME280;70437;49.466;11.002;2023-11-21T07:27:15;97733.44;;;9.13;100.00
80976;BME280;70437;49.466;11.002;2023-11-21T07:29:44;97728.63;;;9.03;100.00
80976;BME280;70437;49.466;11.002;2023-11-21T07:32:14;97733.00;;;8.98;100.00
80976;BME280;70437;49.466;11.002;2023-11-21T07:34:48;97733.59;;;9.00;100.00
80976;BME280;70437;49.466;11.002;2023-11-21T07:37:25;97740.50;;;9.07;100.00
80976;BME280;70437;49.466;11.002;2023-11-21T07:39:56;97740.03;;;9.10;100.00
80976;BME280;70437;49.466;11.002;2023-11-21T07:42:25;97741.38;;;8.83;100.00
80976;BME280;70437;49.466;11.002;2023-11-21T07:44:59;97738.41;;;8.73;100.00
80976;BME280;70437;49.466;11.002;2023-11-21T07:47:35;97745.31;;;8.99;100.00
80976;BME280;70437;49.466;11.002;2023-11-21T07:50:10;97741.59;;;9.00;100.00
80976;BME280;70437;49.466;11.002;2023-11-21T07:52:42;97750.22;;;9.02;100.00
80976;BME280;70437;49.466;11.002;2023-11-21T07:55:13;97743.84;;;9.03;100.00
80976;BME280;70437;49.466;11.002;2023-11-21T07:57:44;97748.84;;;8.74;100.00
80976;BME280;70437;49.466;11.002;2023-11-21T08:00:15;97753.09;;;8.82;100.00
80976;BME280;70437;49.466;11.002;2023-11-21T08:02:44;97752.13;;;8.76;100.00
80976;BME280;70437;49.466;11.002;2023-11-21T08:05:16;97743.59;;;8.86;100.00
80976;BME280;70437;49.466;11.002;2023-11-21T08:07:59;97759.41;;;8.88;100.00
80976;BME280;70437;49.466;11.002;2023-11-21T08:10:29;97750.53;;;8.94;100.00
80976;BME280;70437;49.466;11.002;2023-11-21T08:12:59;97751.09;;;8.96;100.00
80976;BME280;70437;49.466;11.002;2023-11-21T08:15:28;97762.53;;;9.21;100.00
80976;BME280;70437;49.466;11.002;2023-11-21T08:18:00;97763.59;;;9.20;100.00
80976;BME280;70437;49.466;11.002;2023-11-21T08:20:31;97758.28;;;9.32;100.00
80976;BME280;70437;49.466;11.002;2023-11-21T08:23:01;97761.72;;;9.21;100.00
80976;BME280;70437;49.466;11.002;2023-11-21T08:25:33;97763.06;;;9.30;100.00
80976;BME280;70437;49.466;11.002;2023-11-21T08:28:11;97755.69;;;9.25;100.00
80976;BME280;70437;49.466;11.002;2023-11-21T08:30:43;97754.78;;;9.31;100.00
80976;BME280;70437;49.466;11.002;2023-11-21T08:33:13;97755.38;;;9.52;100.00
80976;BME280;70437;49.466;11.002;2023-11-21T08:35:46;97755.09;;;9.72;100.00
80976;BME280;70437;49.466;11.002;2023-11-21T08:38:15;97763.72;;;9.74;100.00
80976;BME280;70437;49.466;11.002;2023-11-21T08:40:51;97765.66;;;10.27;100.00
80976;BME280;70437;49.466;11.002;2023-11-21T08:43:22;97761.31;;;10.26;100.00
80976;BME280;70437;49.466;11.002;2023-11-21T08:45:55;97764.97;;;10.31;100.00
80976;BME280;70437;49.466;11.002;2023-11-21T08:48:24;97764.81;;;10.26;100.00
80976;BME280;70437;49.466;11.002;2023-11-21T08:50:58;97772.47;;;10.23;100.00
80976;BME280;70437;49.466;11.002;2023-11-21T08:53:29;97774.53;;;10.09;100.00
80976;BME280;70437;49.466;11.002;2023-11-21T08:56:00;97781.72;;;10.08;100.00
80976;BME280;70437;49.466;11.002;2023-11-21T08:58:30;97780.47;;;10.11;100.00
80976;BME280;70437;49.466;11.002;2023-11-21T09:01:04;97787.50;;;9.94;100.00
80976;BME280;70437;49.466;11.002;2023-11-21T09:03:34;97798.66;;;9.91;100.00
80976;BME280;70437;49.466;11.002;2023-11-21T09:06:07;97790.78;;;9.96;100.00
80976;BME280;70437;49.466;11.002;2023-11-21T09:08:45;97796.47;;;9.87;100.00
80976;BME280;70437;49.466;11.002;2023-11-21T09:11:15;97793.47;;;9.96;100.00
80976;BME280;70437;49.466;11.002;2023-11-21T09:13:44;97798.84;;;10.07;100.00
80976;BME280;70437;49.466;11.002;2023-11-21T09:16:19;97798.63;;;10.09;100.00
80976;BME280;70437;49.466;11.002;2023-11-21T09:18:53;97806.47;;;9.92;100.00
80976;BME280;70437;49.466;11.002;2023-11-21T09:21:28;97812.34;;;10.01;100.00
80976;BME280;70437;49.466;11.002;2023-11-21T09:23:58;97816.88;;;10.12;100.00
80976;BME280;70437;49.466;11.002;2023-11-21T09:26:28;97823.13;;;10.24;100.00
80976;BME280;70437;49.466;11.002;2023-11-21T09:29:01;97820.66;;;10.23;100.00
80976;BME280;70437;49.466;11.002;2023-11-21T09:31:33;97827.53;;;10.19;100.00
80976;BME280;70437;49.466;11.002;2023-11-21T09:34:03;97825.38;;;10.27;100.00
80976;BME280;70437;49.466;11.002;2023-11-21T09:36:38;97822.81;;;10.44;100.00
80976;BME280;70437;49.466;11.002;2023-11-21T09:39:09;97825.69;;;10.31;100.00
80976;BME280;70437;49.466;11.002;2023-11-21T09:41:46;97832.47;;;10.33;100.00
80976;BME280;70437;49.466;11.002;2023-11-21T09:44:24;97822.50;;;10.41;100.00
80976;BME280;70437;49.466;11.002;2023-11-21T09:47:03;97826.47;;;10.50;100.00
80976;BME280;70437;49.466;11.002;2023-11-21T09:49:39;97822.38;;;10.17;100.00
80976;BME280;70437;49.466;11.002;2023-11-21T09:52:15;97818.50;;;10.01;100.00
80976;BME280;70437;49.466;11.002;2023-11-21T09:54:54;97827.59;;;10.12;100.00
80976;BME280;70437;49.466;11.002;2023-11-21T09:57:25;97829.44;;;9.81;100.00
80976;BME280;70437;49.466;11.002;2023-11-21T09:59:54;97826.72;;;9.88;100.00
80976;BME280;70437;49.466;11.002;2023-11-21T10:02:28;97827.00;;;9.80;100.00
80976;BME280;70437;49.466;11.002;2023-11-21T10:05:00;97819.81;;;9.80;100.00
80976;BME280;70437;49.466;11.002;2023-11-21T10:07:31;97826.47;;;9.90;100.00
80976;BME280;70437;49.466;11.002;2023-11-21T10:10:07;97825.41;;;10.09;100.00
80976;BME280;70437;49.466;11.002;2023-11-21T10:12:38;97823.13;;;10.24;100.00
80976;BME280;70437;49.466;11.002;2023-11-21T10:15:11;97820.50;;;10.36;100.00
80976;BME280;70437;49.466;11.002;2023-11-21T10:17:48;97824.47;;;10.15;100.00
80976;BME280;70437;49.466;11.002;2023-11-21T10:20:23;97814.44;;;10.10;100.00
80976;BME280;70437;49.466;11.002;2023-11-21T10:22:56;97825.41;;;10.21;100.00
80976;BME280;70437;49.466;11.002;2023-11-21T10:25:27;97822.91;;;10.26;100.00
80976;BME280;70437;49.466;11.002;2023-11-21T10:28:00;97828.97;;;10.33;100.00
80976;BME280;70437;49.466;11.002;2023-11-21T10:30:37;97822.00;;;10.32;100.00
80976;BME280;70437;49.466;11.002;2023-11-21T10:33:09;97817.38;;;10.51;100.00
80976;BME280;70437;49.466;11.002;2023-11-21T10:35:43;97819.69;;;10.47;100.00
80976;BME280;70437;49.466;11.002;2023-11-21T10:38:43;97817.72;;;10.66;100.00
80976;BME280;70437;49.466;11.002;2023-11-21T10:41:18;97815.53;;;10.63;100.00
80976;BME280;70437;49.466;11.002;2023-11-21T10:43:53;97822.28;;;10.89;100.00
80976;BME280;70437;49.466;11.002;2023-11-21T10:46:27;97820.50;;;11.42;100.00
80976;BME280;70437;49.466;11.002;2023-11-21T10:49:01;97824.56;;;11.96;100.00
80976;BME280;70437;49.466;11.002;2023-11-21T10:51:31;97831.75;;;12.07;100.00
80976;BME280;70437;49.466;11.002;2023-11-21T10:54:07;97830.63;;;11.51;100.00
80976;BME280;70437;49.466;11.002;2023-11-21T10:56:36;97838.47;;;11.29;100.00
80976;BME280;70437;49.466;11.002;2023-11-21T10:59:21;97835.78;;;11.41;100.00
80976;BME280;70437;49.466;11.002;2023-11-21T11:01:53;97831.22;;;11.42;100.00
80976;BME280;70437;49.466;11.002;2023-11-21T11:04:27;97833.78;;;11.48;100.00
80976;BME280;70437;49.466;11.002;2023-11-21T11:06:58;97836.84;;;11.40;100.00
80976;BME280;70437;49.466;11.002;2023-11-21T11:09:34;97833.69;;;11.31;100.00
80976;BME280;70437;49.466;11.002;2023-11-21T11:12:08;97829.16;;;11.32;100.00
80976;BME280;70437;49.466;11.002;2023-11-21T11:14:42;97843.25;;;10.92;100.00
80976;BME280;70437;49.466;11.002;2023-11-21T11:17:19;97833.25;;;10.99;100.00
80976;BME280;70437;49.466;11.002;2023-11-21T11:19:50;97841.25;;;10.76;100.00
80976;BME280;70437;49.466;11.002;2023-11-21T11:22:36;97828.09;;;10.62;100.00
80976;BME280;70437;49.466;11.002;2023-11-21T11:25:24;97834.69;;;10.36;100.00
80976;BME280;70437;49.466;11.002;2023-11-21T11:28:03;97834.91;;;10.35;100.00
80976;BME280;70437;49.466;11.002;2023-11-21T11:30:53;97835.84;;;10.29;100.00
80976;BME280;70437;49.466;11.002;2023-11-21T11:33:34;97839.44;;;10.34;100.00
80976;BME280;70437;49.466;11.002;2023-11-21T11:36:17;97839.69;;;10.33;100.00
80976;BME280;70437;49.466;11.002;2023-11-21T11:38:52;97829.78;;;10.33;100.00
80976;BME280;70437;49.466;11.002;2023-11-21T11:41:29;97842.00;;;10.29;100.00
80976;BME280;70437;49.466;11.002;2023-11-21T11:44:09;97849.50;;;10.21;100.00
80976;BME280;70437;49.466;11.002;2023-11-21T11:46:58;97843.28;;;10.27;100.00
80976;BME280;70437;49.466;11.002;2023-11-21T11:49:32;97839.66;;;10.63;100.00
80976;BME280;70437;49.466;11.002;2023-11-21T11:55:07;97837.78;;;10.75;100.00
80976;BME280;70437;49.466;11.002;2023-11-21T11:57:47;97846.66;;;10.87;100.00
80976;BME280;70437;49.466;11.002;2023-11-21T12:00:19;97847.25;;;10.90;100.00
80976;BME280;70437;49.466;11.002;2023-11-21T12:02:58;97850.50;;;10.92;100.00
80976;BME280;70437;49.466;11.002;2023-11-21T12:05:32;97855.97;;;10.85;100.00
80976;BME280;70437;49.466;11.002;2023-11-21T12:08:07;97850.94;;;10.88;100.00
80976;BME280;70437;49.466;11.002;2023-11-21T12:10:38;97856.56;;;10.87;100.00
80976;BME280;70437;49.466;11.002;2023-11-21T12:13:25;97857.56;;;10.62;100.00
80976;BME280;70437;49.466;11.002;2023-11-21T12:15:57;97854.88;;;10.62;100.00
80976;BME280;70437;49.466;11.002;2023-11-21T12:18:27;97858.25;;;10.58;100.00
80976;BME280;70437;49.466;11.002;2023-11-21T12:20:57;97856.38;;;10.47;100.00
80976;BME280;70437;49.466;11.002;2023-11-21T12:23:28;97854.75;;;10.46;100.00
80976;BME280;70437;49.466;11.002;2023-11-21T12:26:00;97854.34;;;10.72;100.00
80976;BME280;70437;49.466;11.002;2023-11-21T12:28:33;97857.69;;;10.79;100.00
80976;BME280;70437;49.466;11.002;2023-11-21T12:31:04;97859.13;;;10.82;100.00
80976;BME280;70437;49.466;11.002;2023-11-21T12:33:51;97859.09;;;10.70;100.00
80976;BME280;70437;49.466;11.002;2023-11-21T12:36:21;97859.78;;;10.66;100.00
80976;BME280;70437;49.466;11.002;2023-11-21T12:38:55;97858.06;;;10.83;100.00
80976;BME280;70437;49.466;11.002;2023-11-21T12:41:26;97855.00;;;10.56;100.00
80976;BME280;70437;49.466;11.002;2023-11-21T12:43:56;97868.59;;;10.43;100.00
80976;BME280;70437;49.466;11.002;2023-11-21T12:46:30;97871.31;;;10.66;100.00
80976;BME280;70437;49.466;11.002;2023-11-21T12:49:17;97870.94;;;10.51;100.00
80976;BME280;70437;49.466;11.002;2023-11-21T12:51:48;97885.72;;;10.42;100.00
80976;BME280;70437;49.466;11.002;2023-11-21T12:54:18;97878.72;;;10.41;100.00
80976;BME280;70437;49.466;11.002;2023-11-21T12:56:50;97881.53;;;10.46;100.00
80976;BME280;70437;49.466;11.002;2023-11-21T12:59:24;97886.06;;;10.45;100.00
80976;BME280;70437;49.466;11.002;2023-11-21T13:01:56;97886.28;;;10.85;100.00
80976;BME280;70437;49.466;11.002;2023-11-21T13:04:31;97875.56;;;10.85;100.00
80976;BME280;70437;49.466;11.002;2023-11-21T13:07:05;97876.31;;;10.62;100.00
80976;BME280;70437;49.466;11.002;2023-11-21T13:09:45;97888.69;;;10.63;100.00
80976;BME280;70437;49.466;11.002;2023-11-21T13:12:23;97883.78;;;10.60;100.00
80976;BME280;70437;49.466;11.002;2023-11-21T13:19:04;97888.00;;;10.80;100.00